createdAt,value
2023-01-09T00:00:29.522Z,100.00
2023-01-09T00:05:38.973Z,100.00
2023-01-09T00:10:48.683Z,100.00
2023-01-09T00:16:00.917Z,100.00
2023-01-09T00:21:08.070Z,100.00
2023-01-09T00:26:24.018Z,100.00
2023-01-09T00:31:32.241Z,100.00
2023-01-09T00:36:43.287Z,100.00
2023-01-09T00:41:53.131Z,100.00
2023-01-09T00:47:11.215Z,100.00
2023-01-09T00:52:20.952Z,99.75
2023-01-09T00:57:27.054Z,99.45
2023-01-09T01:02:38.255Z,99.79
2023-01-09T01:07:59.634Z,99.11
2023-01-09T01:13:06.205Z,99.52
2023-01-09T01:18:33.657Z,99.28
2023-01-09T01:23:56.332Z,99.76
2023-01-09T01:29:10.879Z,99.25
2023-01-09T01:34:17.867Z,99.55
2023-01-09T01:39:35.517Z,98.55
2023-01-09T01:45:15.966Z,98.21
2023-01-09T01:50:41.484Z,98.10
2023-01-09T01:55:54.849Z,98.05
2023-01-09T02:01:03.420Z,97.78
2023-01-09T02:06:17.382Z,97.50
2023-01-09T02:11:24.888Z,97.10
2023-01-09T02:16:49.601Z,96.56
2023-01-09T02:22:12.810Z,96.44
2023-01-09T02:28:07.755Z,96.04
2023-01-09T02:33:58.729Z,95.71
2023-01-09T02:39:18.833Z,95.71
2023-01-09T02:44:39.808Z,96.65
2023-01-09T02:49:55.309Z,96.77
2023-01-09T02:55:08.781Z,97.64
2023-01-09T03:00:31.933Z,98.23
2023-01-09T03:05:47.684Z,99.14
2023-01-09T03:11:00.176Z,100.00
2023-01-09T03:16:15.835Z,100.00
2023-01-09T03:21:45.533Z,100.00
2023-01-09T03:26:55.619Z,100.00
2023-01-09T03:32:03.997Z,100.00
2023-01-09T03:37:15.197Z,100.00
2023-01-09T03:42:20.468Z,100.00
2023-01-09T03:47:36.928Z,100.00
2023-01-09T03:52:50.192Z,100.00
2023-01-09T03:58:00.712Z,100.00
2023-01-09T04:03:24.630Z,100.00
2023-01-09T04:08:38.672Z,100.00
2023-01-09T04:13:46.585Z,100.00
2023-01-09T04:18:53.710Z,100.00
2023-01-09T04:23:59.231Z,100.00
2023-01-09T04:29:08.145Z,100.00
2023-01-09T04:34:14.826Z,100.00
2023-01-09T04:39:24.158Z,100.00
2023-01-09T04:44:28.981Z,100.00
2023-01-09T04:49:34.597Z,100.00
2023-01-09T04:54:50.552Z,100.00
2023-01-09T05:00:05.439Z,100.00
2023-01-09T05:05:13.042Z,100.00
2023-01-09T05:10:21.330Z,100.00
2023-01-09T05:15:38.089Z,100.00
2023-01-09T05:20:47.566Z,100.00
2023-01-09T05:26:04.458Z,100.00
2023-01-09T05:31:12.077Z,100.00
2023-01-09T05:36:19.031Z,100.00
2023-01-09T05:41:29.263Z,100.00
2023-01-09T05:46:39.986Z,100.00
2023-01-09T05:51:45.005Z,100.00
2023-01-09T05:56:59.292Z,100.00
2023-01-09T06:02:02.811Z,100.00
2023-01-09T06:07:10.961Z,100.00
2023-01-09T06:12:19.000Z,100.00
2023-01-09T06:17:24.984Z,100.00
2023-01-09T06:22:31.832Z,100.00
2023-01-09T06:27:42.917Z,100.00
2023-01-09T06:32:47.005Z,100.00
2023-01-09T06:37:52.166Z,100.00
2023-01-09T06:43:00.242Z,100.00
2023-01-09T06:48:11.840Z,100.00
2023-01-09T06:53:22.380Z,100.00
2023-01-09T06:58:31.195Z,100.00
2023-01-09T07:03:43.434Z,100.00
2023-01-09T07:08:51.424Z,100.00
2023-01-09T07:14:05.880Z,100.00
2023-01-09T07:19:21.374Z,100.00
2023-01-09T07:24:38.950Z,100.00
2023-01-09T07:29:49.121Z,100.00
2023-01-09T07:34:54.436Z,100.00
2023-01-09T07:40:15.703Z,100.00
2023-01-09T07:45:26.796Z,100.00
2023-01-09T07:50:37.343Z,100.00
2023-01-09T07:55:52.141Z,100.00
2023-01-09T08:01:04.327Z,100.00
2023-01-09T08:06:10.883Z,100.00
2023-01-09T08:11:16.189Z,100.00
2023-01-09T08:16:31.471Z,100.00
2023-01-09T08:21:38.278Z,100.00
2023-01-09T08:26:47.603Z,100.00
2023-01-09T08:32:12.408Z,100.00
2023-01-09T08:37:26.130Z,100.00
2023-01-09T08:42:49.131Z,100.00
2023-01-09T08:48:06.565Z,100.00
2023-01-09T08:53:19.474Z,100.00
2023-01-09T08:58:36.690Z,100.00
2023-01-09T09:03:44.818Z,100.00
2023-01-09T09:08:55.608Z,100.00
2023-01-09T09:14:25.546Z,100.00
2023-01-09T09:19:39.817Z,100.00
2023-01-09T09:24:58.247Z,100.00
2023-01-09T09:30:15.553Z,100.00
2023-01-09T09:35:22.897Z,100.00
2023-01-09T09:40:59.958Z,100.00
2023-01-09T09:46:15.172Z,100.00
2023-01-09T09:51:38.330Z,99.34
2023-01-09T09:56:48.586Z,98.89
2023-01-09T10:01:57.565Z,96.67
2023-01-09T10:07:09.725Z,94.45
2023-01-09T10:12:29.850Z,92.75
2023-01-09T10:17:50.689Z,91.05
2023-01-09T10:23:05.876Z,86.41
2023-01-09T10:28:28.650Z,86.10
2023-01-09T10:33:43.282Z,86.01
2023-01-09T10:38:54.598Z,84.20
2023-01-09T10:44:04.949Z,81.51
2023-01-09T10:49:15.236Z,81.23
2023-01-09T10:54:25.239Z,80.23
2023-01-09T10:59:33.895Z,78.98
2023-01-09T11:04:45.288Z,77.93
2023-01-09T11:10:01.928Z,77.26
2023-01-09T11:15:31.945Z,76.54
2023-01-09T11:20:41.951Z,76.92
2023-01-09T11:25:54.419Z,77.31
2023-01-09T11:31:19.451Z,77.63
2023-01-09T11:36:35.220Z,78.01
2023-01-09T11:41:45.240Z,79.14
2023-01-09T11:46:58.287Z,79.52
2023-01-09T11:52:21.112Z,78.94
2023-01-09T11:57:33.026Z,79.37
2023-01-09T12:03:00.381Z,79.74
2023-01-09T12:08:25.021Z,79.74
2023-01-09T12:14:02.565Z,80.27
2023-01-09T12:19:40.060Z,80.10
2023-01-09T12:25:07.150Z,79.39
2023-01-09T12:35:47.268Z,79.47
2023-01-09T12:41:22.951Z,77.98
2023-01-09T12:46:31.212Z,78.16
2023-01-09T12:51:42.466Z,77.70
2023-01-09T12:56:51.909Z,76.99
2023-01-09T13:01:56.871Z,76.73
2023-01-09T13:07:04.598Z,76.93
2023-01-09T13:12:13.771Z,77.15
2023-01-09T13:17:22.300Z,77.62
2023-01-09T13:22:29.371Z,77.60
2023-01-09T13:27:39.248Z,78.98
2023-01-09T13:32:57.871Z,81.05
2023-01-09T13:38:02.551Z,81.14
2023-01-09T13:43:07.695Z,82.07
2023-01-09T13:48:29.685Z,81.80
2023-01-09T13:53:49.805Z,81.77
2023-01-09T13:59:03.915Z,81.20
2023-01-09T14:04:37.653Z,81.35
2023-01-09T14:09:49.204Z,81.15
2023-01-09T14:14:55.114Z,80.49
2023-01-09T14:20:01.401Z,81.04
2023-01-09T14:25:15.511Z,81.21
2023-01-09T14:30:30.335Z,81.07
2023-01-09T14:35:46.477Z,81.76
2023-01-09T14:40:55.871Z,81.58
2023-01-09T14:46:05.659Z,81.92
2023-01-09T14:51:16.169Z,82.66
2023-01-09T14:56:29.591Z,83.36
2023-01-09T15:01:34.802Z,83.74
2023-01-09T15:06:42.774Z,84.42
2023-01-09T15:11:47.906Z,85.17
2023-01-09T15:16:51.262Z,85.29
2023-01-09T15:21:59.318Z,86.16
2023-01-09T15:27:05.837Z,86.44
2023-01-09T15:32:13.462Z,86.81
2023-01-09T15:37:27.782Z,88.03
2023-01-09T15:42:55.740Z,88.16
2023-01-09T15:48:16.541Z,89.29
2023-01-09T15:53:22.563Z,89.25
2023-01-09T15:58:29.278Z,89.05
2023-01-09T16:03:33.044Z,89.46
2023-01-09T16:08:38.807Z,89.32
2023-01-09T16:13:46.996Z,90.00
2023-01-09T16:18:52.976Z,89.89
2023-01-09T16:23:59.445Z,90.80
2023-01-09T16:29:29.887Z,91.42
2023-01-09T16:34:35.195Z,91.92
2023-01-09T16:39:38.817Z,92.42
2023-01-09T16:44:43.794Z,92.34
2023-01-09T16:49:47.001Z,92.60
2023-01-09T16:54:50.316Z,93.23
2023-01-09T16:59:56.595Z,93.15
2023-01-09T17:04:59.888Z,93.37
2023-01-09T17:10:03.093Z,93.95
2023-01-09T17:15:08.686Z,94.75
2023-01-09T17:20:17.706Z,95.29
2023-01-09T17:25:38.459Z,95.80
2023-01-09T17:30:43.380Z,96.43
2023-01-09T17:35:46.715Z,97.06
2023-01-09T17:40:50.719Z,97.60
2023-01-09T17:45:55.413Z,98.37
2023-01-09T17:50:58.827Z,98.39
2023-01-09T17:56:02.270Z,98.98
2023-01-09T18:01:06.817Z,99.14
2023-01-09T18:06:12.329Z,98.51
2023-01-09T18:11:18.299Z,98.99
2023-01-09T18:16:25.253Z,98.96
2023-01-09T18:21:30.456Z,98.44
2023-01-09T18:26:40.866Z,98.23
2023-01-09T18:31:45.721Z,98.74
2023-01-09T18:36:49.038Z,98.77
2023-01-09T18:41:52.220Z,98.70
2023-01-09T18:46:56.659Z,98.96
2023-01-09T18:51:59.935Z,98.74
2023-01-09T18:57:03.056Z,99.53
2023-01-09T19:02:09.177Z,98.83
2023-01-09T19:07:12.294Z,98.71
2023-01-09T19:12:15.552Z,98.48
2023-01-09T19:17:20.832Z,98.81
2023-01-09T19:22:24.230Z,99.21
2023-01-09T19:27:30.491Z,100.00
2023-01-09T19:32:35.256Z,100.00
2023-01-09T19:37:38.644Z,100.00
2023-01-09T19:42:41.894Z,99.91
2023-01-09T19:47:47.662Z,100.00
2023-01-09T19:52:51.408Z,100.00
2023-01-09T19:57:54.557Z,100.00
2023-01-09T20:02:59.325Z,100.00
2023-01-09T20:08:06.436Z,100.00
2023-01-09T20:13:11.431Z,100.00
2023-01-09T20:18:19.760Z,100.00
2023-01-09T20:23:28.116Z,100.00
2023-01-09T20:28:33.380Z,100.00
2023-01-09T20:33:44.886Z,100.00
2023-01-09T20:38:49.441Z,100.00
2023-01-09T20:43:55.803Z,100.00
2023-01-09T20:49:03.967Z,100.00
2023-01-09T20:54:07.977Z,100.00
2023-01-09T20:59:20.542Z,100.00
2023-01-09T21:04:26.570Z,100.00
2023-01-09T21:09:31.994Z,100.00
2023-01-09T21:14:39.450Z,100.00
2023-01-09T21:19:53.095Z,100.00
2023-01-09T21:24:57.973Z,100.00
2023-01-09T21:30:02.078Z,100.00
2023-01-09T21:35:17.292Z,100.00
2023-01-09T21:40:22.552Z,100.00
2023-01-09T21:45:43.953Z,100.00
2023-01-09T21:50:51.869Z,100.00
2023-01-09T21:55:57.136Z,100.00
2023-01-09T22:01:04.288Z,100.00
2023-01-09T22:06:13.402Z,100.00
2023-01-09T22:11:23.080Z,100.00
2023-01-09T22:16:29.667Z,100.00
2023-01-09T22:21:35.943Z,100.00
2023-01-09T22:26:40.354Z,100.00
2023-01-09T22:31:45.240Z,100.00
2023-01-09T22:36:52.795Z,100.00
2023-01-09T22:41:59.518Z,100.00
2023-01-09T22:47:11.546Z,100.00
2023-01-09T22:52:37.023Z,100.00
2023-01-09T22:57:51.781Z,100.00
2023-01-09T23:02:59.845Z,100.00
2023-01-09T23:08:08.718Z,100.00
2023-01-09T23:13:13.131Z,100.00
2023-01-09T23:18:17.766Z,100.00
2023-01-09T23:23:27.696Z,100.00
2023-01-09T23:28:32.281Z,100.00
2023-01-09T23:33:46.967Z,100.00
2023-01-09T23:38:54.624Z,100.00
2023-01-09T23:44:08.405Z,100.00
2023-01-09T23:49:18.380Z,100.00
2023-01-09T23:54:30.263Z,100.00
2023-01-09T23:59:36.342Z,100.00
